createdAt,value
2022-08-29T00:04:22.720Z,100444.88
2022-08-29T00:09:24.109Z,100446.25
2022-08-29T00:14:25.456Z,100439.69
2022-08-29T00:19:27.536Z,100438.59
2022-08-29T00:24:28.986Z,100452.25
2022-08-29T00:29:30.290Z,100448.53
2022-08-29T00:34:31.588Z,100450.94
2022-08-29T00:39:33.050Z,100453.47
2022-08-29T00:44:34.574Z,100444.41
2022-08-29T00:49:49.621Z,100444.28
2022-08-29T00:54:53.714Z,100459.31
2022-08-29T00:59:55.242Z,100461.34
2022-08-29T01:04:57.769Z,100465.94
2022-08-29T01:09:59.238Z,100456.16
2022-08-29T01:15:09.711Z,100461.63
2022-08-29T01:20:32.518Z,100461.31
2022-08-29T01:25:39.231Z,100456.28
2022-08-29T01:31:00.654Z,100453.94
2022-08-29T01:36:02.187Z,100462.56
2022-08-29T01:41:04.415Z,100472.19
2022-08-29T01:46:05.756Z,100474.56
2022-08-29T01:51:08.185Z,100477.97
2022-08-29T01:56:29.781Z,100478.28
2022-08-29T02:01:33.737Z,100483.97
2022-08-29T02:06:36.699Z,100482.31
2022-08-29T02:11:39.762Z,100487.88
2022-08-29T02:16:41.247Z,100480.66
2022-08-29T02:21:43.230Z,100487.41
2022-08-29T02:26:44.876Z,100490.78
2022-08-29T02:31:46.440Z,100491.78
2022-08-29T02:36:49.151Z,100488.09
2022-08-29T02:41:50.709Z,100496.84
2022-08-29T02:46:52.093Z,100496.00
2022-08-29T02:51:53.447Z,100489.78
2022-08-29T02:56:54.871Z,100486.75
2022-08-29T03:01:56.529Z,100488.41
2022-08-29T03:06:57.922Z,100495.81
2022-08-29T03:11:59.434Z,100493.09
2022-08-29T03:17:01.689Z,100488.41
2022-08-29T03:22:03.022Z,100485.50
2022-08-29T03:27:04.585Z,100485.31
2022-08-29T03:32:06.049Z,100492.25
2022-08-29T03:37:07.422Z,100495.41
2022-08-29T03:42:08.839Z,100502.13
2022-08-29T03:47:10.256Z,100495.06
2022-08-29T03:52:11.884Z,100505.28
2022-08-29T03:57:13.226Z,100496.00
2022-08-29T04:02:15.530Z,100489.63
2022-08-29T04:07:17.599Z,100487.25
2022-08-29T04:12:18.973Z,100492.47
2022-08-29T04:17:20.312Z,100493.31
2022-08-29T04:22:21.638Z,100495.63
2022-08-29T04:27:23.087Z,100505.88
2022-08-29T04:32:24.495Z,100498.13
2022-08-29T04:37:26.112Z,100508.00
2022-08-29T04:42:27.552Z,100511.34
2022-08-29T04:47:28.838Z,100502.03
2022-08-29T04:52:30.143Z,100510.63
2022-08-29T04:57:31.740Z,100517.31
2022-08-29T05:02:33.146Z,100513.53
2022-08-29T05:07:35.060Z,100522.31
2022-08-29T05:12:40.023Z,100531.88
2022-08-29T05:17:41.732Z,100534.72
2022-08-29T05:22:43.220Z,100542.84
2022-08-29T05:27:44.612Z,100528.38
2022-08-29T05:32:46.039Z,100541.50
2022-08-29T05:37:47.569Z,100550.00
2022-08-29T05:42:49.532Z,100544.13
2022-08-29T05:47:50.956Z,100548.00
2022-08-29T05:52:52.267Z,100552.44
2022-08-29T05:57:54.428Z,100544.72
2022-08-29T06:02:55.908Z,100548.28
2022-08-29T06:07:57.390Z,100552.84
2022-08-29T06:12:59.137Z,100552.25
2022-08-29T06:18:00.627Z,100558.75
2022-08-29T06:23:02.028Z,100554.75
2022-08-29T06:28:03.660Z,100565.88
2022-08-29T06:33:05.016Z,100561.72
2022-08-29T06:38:10.755Z,100579.06
2022-08-29T06:43:14.681Z,100585.47
2022-08-29T06:48:16.379Z,100575.53
2022-08-29T06:53:27.526Z,100570.47
2022-08-29T06:58:34.984Z,100593.06
2022-08-29T07:03:36.684Z,100591.50
2022-08-29T07:08:43.627Z,100585.06
2022-08-29T07:13:57.065Z,100587.53
2022-08-29T07:18:58.770Z,100585.56
2022-08-29T07:24:00.212Z,100581.06
2022-08-29T07:29:05.543Z,100597.41
2022-08-29T07:34:07.545Z,100592.53
2022-08-29T07:39:13.154Z,100592.00
2022-08-29T07:44:15.137Z,100598.84
2022-08-29T07:49:16.467Z,100598.22
2022-08-29T07:54:18.806Z,100590.88
2022-08-29T07:59:21.753Z,100588.84
2022-08-29T08:04:23.056Z,100587.03
2022-08-29T08:09:25.732Z,100581.56
2022-08-29T08:14:34.574Z,100590.38
2022-08-29T08:19:37.790Z,100585.22
2022-08-29T08:24:39.122Z,100585.44
2022-08-29T08:29:40.460Z,100595.28
2022-08-29T08:34:43.006Z,100589.41
2022-08-29T08:39:44.516Z,100588.59
2022-08-29T08:45:17.283Z,100592.47
2022-08-29T08:50:34.763Z,100591.41
2022-08-29T08:55:42.623Z,100600.66
2022-08-29T09:00:55.155Z,100602.34
2022-08-29T09:06:10.306Z,100595.97
2022-08-29T09:11:45.197Z,100597.28
2022-08-29T09:16:51.080Z,100586.41
2022-08-29T09:21:55.295Z,100586.50
2022-08-29T09:26:56.629Z,100585.56
2022-08-29T09:32:17.732Z,100581.50
2022-08-29T09:37:26.623Z,100589.31
2022-08-29T09:42:37.993Z,100575.50
2022-08-29T09:47:39.607Z,100577.28
2022-08-29T09:53:01.284Z,100570.53
2022-08-29T09:58:17.277Z,100581.66
2022-08-29T10:03:22.357Z,100577.44
2022-08-29T10:08:34.927Z,100578.59
2022-08-29T10:13:47.175Z,100573.47
2022-08-29T10:18:57.907Z,100566.03
2022-08-29T10:24:31.034Z,100555.44
2022-08-29T10:29:44.583Z,100540.69
2022-08-29T10:35:29.904Z,100553.94
2022-08-29T10:40:49.625Z,100556.31
2022-08-29T10:46:15.922Z,100554.56
2022-08-29T10:51:42.896Z,100543.31
2022-08-29T10:56:48.272Z,100530.19
2022-08-29T11:01:57.192Z,100532.56
2022-08-29T11:07:07.706Z,100535.13
2022-08-29T11:12:34.775Z,100527.19
2022-08-29T11:17:40.774Z,100514.69
2022-08-29T11:23:02.032Z,100514.06
2022-08-29T11:28:23.627Z,100506.22
2022-08-29T11:33:43.392Z,100508.97
2022-08-29T11:39:15.939Z,100491.94
2022-08-29T11:44:35.713Z,100485.63
2022-08-29T11:49:46.768Z,100493.50
2022-08-29T11:54:54.213Z,100490.06
2022-08-29T11:59:57.725Z,100477.75
2022-08-29T12:05:20.491Z,100470.41
2022-08-29T12:10:24.470Z,100454.59
2022-08-29T12:15:41.827Z,100461.75
2022-08-29T12:20:46.515Z,100452.00
2022-08-29T12:26:09.599Z,100457.97
2022-08-29T12:31:51.288Z,100447.69
2022-08-29T12:37:27.426Z,100444.53
2022-08-29T12:42:38.066Z,100448.19
2022-08-29T12:47:54.389Z,100446.91
2022-08-29T12:53:23.207Z,100438.34
2022-08-29T12:58:44.782Z,100429.59
2022-08-29T13:04:05.476Z,100415.00
2022-08-29T13:09:07.512Z,100411.34
2022-08-29T13:14:11.888Z,100407.91
2022-08-29T13:19:21.573Z,100393.91
2022-08-29T13:24:22.997Z,100387.13
2022-08-29T13:34:36.428Z,100396.78
2022-08-29T13:39:41.802Z,100396.47
2022-08-29T13:44:49.461Z,100395.44
2022-08-29T13:49:55.961Z,100395.50
2022-08-29T13:54:57.645Z,100385.84
2022-08-29T13:59:59.120Z,100388.81
2022-08-29T14:05:01.775Z,100377.53
2022-08-29T14:10:06.118Z,100381.78
2022-08-29T14:15:10.026Z,100380.63
2022-08-29T14:20:12.780Z,100364.84
2022-08-29T14:25:17.068Z,100374.53
2022-08-29T14:30:20.943Z,100366.34
2022-08-29T14:35:26.578Z,100358.00
2022-08-29T14:40:33.993Z,100366.09
2022-08-29T14:45:35.334Z,100361.09
2022-08-29T14:50:36.668Z,100347.91
2022-08-29T14:55:38.033Z,100361.56
2022-08-29T15:00:39.385Z,100355.25
2022-08-29T15:05:42.630Z,100359.72
2022-08-29T15:10:46.215Z,100343.91
2022-08-29T15:15:47.621Z,100336.38
2022-08-29T15:20:49.337Z,100330.19
2022-08-29T15:25:51.712Z,100331.91
2022-08-29T15:30:53.459Z,100329.31
2022-08-29T15:35:54.837Z,100325.13
2022-08-29T15:40:56.269Z,100338.47
2022-08-29T15:45:59.744Z,100335.00
2022-08-29T15:51:01.293Z,100330.13
2022-08-29T15:56:02.748Z,100332.09
2022-08-29T16:01:05.161Z,100334.47
2022-08-29T16:06:06.736Z,100326.16
2022-08-29T16:11:08.044Z,100313.03
2022-08-29T16:16:09.375Z,100325.22
2022-08-29T16:21:10.913Z,100328.06
2022-08-29T16:26:12.546Z,100318.25
2022-08-29T16:31:14.733Z,100313.03
2022-08-29T16:36:17.855Z,100322.94
2022-08-29T16:41:20.386Z,100315.38
2022-08-29T16:46:24.615Z,100321.94
2022-08-29T16:51:27.602Z,100311.31
2022-08-29T16:56:28.941Z,100308.91
2022-08-29T17:01:35.512Z,100307.69
2022-08-29T17:06:37.022Z,100306.91
2022-08-29T17:11:38.722Z,100299.22
2022-08-29T17:16:42.451Z,100309.72
2022-08-29T17:21:44.484Z,100309.81
2022-08-29T17:26:47.857Z,100299.69
2022-08-29T17:31:49.342Z,100307.78
2022-08-29T17:36:50.639Z,100303.69
2022-08-29T17:41:52.416Z,100313.16
2022-08-29T17:46:53.779Z,100321.16
2022-08-29T17:51:56.429Z,100319.78
2022-08-29T17:56:59.918Z,100326.91
2022-08-29T18:02:02.485Z,100321.13
2022-08-29T18:07:04.109Z,100316.13
2022-08-29T18:12:05.959Z,100320.34
2022-08-29T18:17:07.711Z,100327.88
2022-08-29T18:22:09.200Z,100326.84
2022-08-29T18:27:10.562Z,100334.59
2022-08-29T18:32:11.976Z,100340.88
2022-08-29T18:37:13.863Z,100333.38
2022-08-29T18:42:36.716Z,100326.50
2022-08-29T18:47:37.136Z,100334.84
2022-08-29T18:52:38.458Z,100344.28
2022-08-29T18:57:39.792Z,100339.63
2022-08-29T19:02:41.310Z,100352.19
2022-08-29T19:07:42.753Z,100348.81
2022-08-29T19:12:44.140Z,100357.19
2022-08-29T19:17:48.462Z,100366.81
2022-08-29T19:22:50.201Z,100364.28
2022-08-29T19:27:51.666Z,100362.81
2022-08-29T19:32:56.476Z,100368.84
2022-08-29T19:37:57.875Z,100373.63
2022-08-29T19:43:00.434Z,100370.50
2022-08-29T19:48:02.014Z,100379.69
2022-08-29T19:53:03.370Z,100378.81
2022-08-29T19:58:05.370Z,100378.34
2022-08-29T20:03:07.733Z,100367.25
2022-08-29T20:08:09.120Z,100377.44
2022-08-29T20:13:11.419Z,100379.53
2022-08-29T20:18:13.480Z,100366.97
2022-08-29T20:23:14.941Z,100376.75
2022-08-29T20:28:16.631Z,100382.56
2022-08-29T20:33:18.625Z,100397.38
2022-08-29T20:38:20.064Z,100393.16
2022-08-29T20:43:21.411Z,100389.75
2022-08-29T20:48:22.774Z,100395.13
2022-08-29T20:53:31.549Z,100405.91
2022-08-29T20:58:34.476Z,100407.03
2022-08-29T21:03:54.586Z,100404.47
2022-08-29T21:08:55.878Z,100404.00
2022-08-29T21:13:57.528Z,100413.25
2022-08-29T21:18:58.833Z,100417.00
2022-08-29T21:24:01.150Z,100415.72
2022-08-29T21:29:04.581Z,100422.13
2022-08-29T21:34:07.460Z,100415.19
2022-08-29T21:39:11.244Z,100411.19
2022-08-29T21:44:14.874Z,100423.00
2022-08-29T21:49:19.204Z,100421.66
2022-08-29T21:54:20.548Z,100415.63
2022-08-29T21:59:22.009Z,100417.84
2022-08-29T22:04:28.661Z,100422.81
2022-08-29T22:09:30.653Z,100426.41
2022-08-29T22:14:50.689Z,100431.97
2022-08-29T22:19:52.001Z,100427.63
2022-08-29T22:24:53.374Z,100434.47
2022-08-29T22:29:54.877Z,100430.94
2022-08-29T22:34:56.196Z,100433.66
2022-08-29T22:39:57.623Z,100444.47
2022-08-29T22:45:03.648Z,100442.34
2022-08-29T22:50:09.093Z,100455.03
2022-08-29T22:55:13.802Z,100449.75
2022-08-29T23:00:21.565Z,100451.50
2022-08-29T23:05:24.746Z,100453.28
2022-08-29T23:10:26.090Z,100455.06
2022-08-29T23:15:27.581Z,100441.16
2022-08-29T23:20:29.656Z,100445.63
2022-08-29T23:25:30.990Z,100441.53
2022-08-29T23:30:32.667Z,100441.25
2022-08-29T23:35:33.977Z,100446.19
2022-08-29T23:40:36.362Z,100440.88
2022-08-29T23:45:38.300Z,100446.31
2022-08-29T23:50:39.826Z,100452.00
2022-08-29T23:55:41.597Z,100443.97
